createdAt,value
2022-07-26T00:50:53.321Z,37.30
2022-07-26T01:36:02.661Z,37.00
2022-07-26T01:50:58.305Z,36.70
2022-07-26T02:44:40.631Z,35.50
2022-07-26T03:14:36.298Z,34.70
2022-07-26T03:46:22.485Z,34.40
2022-07-26T04:47:08.954Z,34.00
2022-07-26T05:18:14.401Z,34.00
2022-07-26T05:33:12.177Z,33.90
2022-07-26T06:03:38.024Z,33.50
2022-07-26T06:34:15.062Z,33.70
2022-07-26T06:50:41.978Z,33.90
2022-07-26T07:05:49.911Z,34.30
2022-07-26T07:20:39.998Z,34.30
2022-07-26T07:35:40.910Z,34.60
2022-07-26T08:08:14.231Z,34.30
2022-07-26T08:42:17.139Z,34.40
2022-07-26T08:57:14.999Z,34.60
2022-07-26T09:12:15.977Z,34.70
2022-07-26T09:27:16.255Z,35.30
2022-07-26T09:42:30.215Z,35.30
2022-07-26T09:57:17.024Z,34.60
2022-07-26T10:12:36.097Z,34.80
2022-07-26T10:27:22.916Z,35.70
2022-07-26T10:44:27.681Z,35.80
2022-07-26T10:59:57.151Z,34.80
2022-07-26T11:14:31.451Z,34.80
2022-07-26T11:46:22.200Z,36.20
2022-07-26T12:02:46.184Z,36.80
2022-07-26T12:17:45.558Z,36.40
2022-07-26T12:32:45.959Z,36.70
2022-07-26T12:47:46.376Z,36.70
2022-07-26T13:02:46.706Z,36.40
2022-07-26T13:17:46.758Z,36.70
2022-07-26T13:32:47.116Z,37.20
2022-07-26T13:47:47.745Z,37.70
2022-07-26T14:02:47.820Z,38.00
2022-07-26T14:17:48.358Z,38.10
2022-07-26T14:32:48.422Z,37.90
2022-07-26T14:47:48.862Z,37.50
2022-07-26T15:02:49.560Z,37.70
2022-07-26T15:17:50.939Z,37.90
2022-07-26T15:32:49.680Z,38.20
2022-07-26T15:48:13.670Z,39.90
2022-07-26T16:02:50.424Z,38.70
2022-07-26T16:17:50.792Z,38.00
2022-07-26T16:32:51.259Z,37.60
2022-07-26T16:48:00.341Z,37.00
2022-07-26T17:02:51.587Z,36.60
2022-07-26T17:17:52.038Z,35.80
2022-07-26T17:32:53.036Z,35.00
2022-07-26T17:47:52.424Z,34.20
2022-07-26T18:02:52.848Z,34.10
2022-07-26T18:17:53.416Z,34.50
2022-07-26T18:32:53.627Z,34.70
2022-07-26T18:48:00.085Z,34.50
2022-07-26T19:02:54.283Z,34.30
2022-07-26T19:17:54.364Z,34.20
2022-07-26T19:32:54.762Z,34.20
2022-07-26T19:52:20.003Z,34.00
2022-07-26T20:22:42.388Z,33.60
2022-07-26T20:37:42.699Z,33.60
2022-07-26T20:52:46.049Z,33.40
2022-07-26T21:08:00.419Z,33.20
2022-07-26T21:22:43.709Z,33.10
2022-07-26T21:37:47.059Z,32.80
2022-07-26T21:52:44.368Z,32.60
2022-07-26T22:07:47.358Z,32.60
2022-07-26T22:22:45.032Z,32.50
2022-07-26T22:37:47.047Z,32.40
2022-07-26T22:52:45.746Z,32.50
2022-07-26T23:07:49.128Z,32.50
2022-07-26T23:22:48.225Z,32.30
2022-07-26T23:37:48.947Z,32.30
2022-07-26T23:52:48.110Z,32.10
